TimeEST,TemperatureF,Dew PointF,Humidity,Sea Level PressureIn,VisibilityMPH,Wind Direction,Wind SpeedMPH,Gust SpeedMPH,PrecipitationIn,Events,Conditions,WindDirDegrees,DateUTC
12:15 AM,30.2,26.6,86,30.18,10.0,Calm,Calm,-,N/A,,Clear,0,2013-02-26 05:15:00
12:35 AM,28.4,26.6,93,30.19,10.0,Calm,Calm,-,N/A,,Clear,0,2013-02-26 05:35:00
12:55 AM,30.2,28.4,93,30.20,10.0,Calm,Calm,-,N/A,,Clear,0,2013-02-26 05:55:00
1:15 AM,28.4,28.4,100,30.20,10.0,Calm,Calm,-,N/A,,Clear,0,2013-02-26 06:15:00
1:35 AM,30.2,28.4,93,30.18,10.0,Calm,Calm,-,N/A,,Clear,0,2013-02-26 06:35:00
1:55 AM,28.4,28.4,100,30.18,10.0,Calm,Calm,-,N/A,,Clear,0,2013-02-26 06:55:00
2:15 AM,30.2,28.4,93,30.18,10.0,Calm,Calm,-,N/A,,Clear,0,2013-02-26 07:15:00
2:35 AM,30.2,30.2,100,30.16,10.0,NNE,4.6,-,N/A,,Clear,20,2013-02-26 07:35:00
2:55 AM,32.0,30.2,93,30.16,10.0,Calm,Calm,-,N/A,,Clear,0,2013-02-26 07:55:00
3:15 AM,32.0,30.2,93,30.15,10.0,NNE,3.5,-,N/A,,Clear,30,2013-02-26 08:15:00
3:35 AM,33.8,30.2,87,30.15,10.0,Calm,Calm,-,N/A,,Clear,0,2013-02-26 08:35:00
3:55 AM,33.8,30.2,87,30.15,10.0,NNE,3.5,-,N/A,,Clear,20,2013-02-26 08:55:00
4:15 AM,33.8,30.2,87,30.14,10.0,NE,3.5,-,N/A,,Clear,40,2013-02-26 09:15:00
4:35 AM,33.8,32.0,93,30.13,10.0,NE,3.5,-,N/A,,Clear,40,2013-02-26 09:35:00
4:55 AM,35.6,32.0,87,30.12,10.0,NE,5.8,-,N/A,,Clear,50,2013-02-26 09:55:00
5:15 AM,35.6,33.8,93,30.12,10.0,NE,4.6,-,N/A,,Clear,50,2013-02-26 10:15:00
5:35 AM,35.6,33.8,93,30.15,10.0,NE,4.6,-,N/A,,Clear,50,2013-02-26 10:35:00
5:55 AM,37.4,33.8,87,30.13,10.0,ENE,5.8,-,N/A,,Clear,60,2013-02-26 10:55:00
6:15 AM,37.4,35.6,93,30.11,10.0,ENE,5.8,-,N/A,,Mostly Cloudy,60,2013-02-26 11:15:00
6:35 AM,37.4,35.6,93,30.11,10.0,NE,5.8,-,N/A,,Overcast,50,2013-02-26 11:35:00
6:55 AM,37.4,35.6,93,30.10,10.0,ENE,5.8,-,N/A,,Mostly Cloudy,60,2013-02-26 11:55:00
7:15 AM,39.2,37.4,93,30.10,10.0,ENE,4.6,-,N/A,,Mostly Cloudy,60,2013-02-26 12:15:00
7:35 AM,39.2,37.4,93,30.11,10.0,NE,4.6,-,N/A,,Scattered Clouds,50,2013-02-26 12:35:00
7:55 AM,41.0,37.4,87,30.10,10.0,ENE,4.6,-,N/A,,Mostly Cloudy,70,2013-02-26 12:55:00
8:15 AM,42.8,39.2,87,30.11,10.0,East,5.8,-,N/A,,Overcast,80,2013-02-26 13:15:00
8:35 AM,42.8,39.2,87,30.12,10.0,East,6.9,-,N/A,,Overcast,80,2013-02-26 13:35:00
8:55 AM,44.6,39.2,81,30.11,10.0,East,8.1,-,N/A,,Overcast,80,2013-02-26 13:55:00
9:15 AM,44.6,41.0,87,30.10,10.0,East,11.5,-,N/A,,Overcast,80,2013-02-26 14:15:00
9:35 AM,46.4,42.8,87,30.08,10.0,ENE,10.4,-,N/A,,Mostly Cloudy,70,2013-02-26 14:35:00
10:15 AM,48.2,42.8,82,30.05,10.0,East,11.5,-,N/A,,Scattered Clouds,80,2013-02-26 15:15:00
10:35 AM,48.2,42.8,82,30.04,10.0,East,11.5,-,N/A,,Mostly Cloudy,80,2013-02-26 15:35:00
10:55 AM,48.2,44.6,87,30.03,7.0,East,8.1,-,N/A,,Mostly Cloudy,90,2013-02-26 15:55:00
11:15 AM,48.2,46.4,93,30.01,7.0,East,9.2,-,N/A,,Scattered Clouds,80,2013-02-26 16:15:00
11:35 AM,48.2,46.4,93,30.00,10.0,East,10.4,-,N/A,,Mostly Cloudy,80,2013-02-26 16:35:00
11:55 AM,48.2,46.4,93,29.98,5.0,East,9.2,-,N/A,,Overcast,80,2013-02-26 16:55:00
12:15 PM,50.0,48.2,94,29.96,5.0,East,8.1,-,N/A,,Overcast,80,2013-02-26 17:15:00
12:35 PM,50.0,50.0,100,29.95,3.0,East,6.9,-,N/A,,Overcast,90,2013-02-26 17:35:00
12:55 PM,51.8,51.8,100,29.92,4.0,East,6.9,-,N/A,,Overcast,90,2013-02-26 17:55:00
1:15 PM,51.8,51.8,100,29.92,5.0,East,8.1,-,N/A,,Overcast,90,2013-02-26 18:15:00
1:35 PM,51.8,51.8,100,29.92,2.5,East,6.9,-,N/A,,Overcast,90,2013-02-26 18:35:00
1:55 PM,51.8,51.8,100,29.90,3.0,East,8.1,-,N/A,,Overcast,90,2013-02-26 18:55:00
2:15 PM,51.8,51.8,100,29.88,2.5,East,9.2,-,N/A,,Overcast,90,2013-02-26 19:15:00
2:35 PM,51.8,51.8,100,29.87,2.5,East,10.4,16.1,N/A,,Overcast,100,2013-02-26 19:35:00
2:55 PM,53.6,53.6,100,29.84,2.5,East,10.4,-,N/A,,Overcast,100,2013-02-26 19:55:00
3:15 PM,53.6,53.6,100,29.83,3.0,ESE,11.5,20.7,N/A,,Overcast,110,2013-02-26 20:15:00
3:35 PM,53.6,53.6,100,29.78,2.5,ESE,17.3,25.3,N/A,,Overcast,110,2013-02-26 20:35:00
3:55 PM,53.6,53.6,100,29.75,7.0,ESE,19.6,28.8,N/A,,Overcast,110,2013-02-26 20:55:00
4:15 PM,53.6,53.6,100,29.74,5.0,ESE,16.1,24.2,N/A,,Overcast,110,2013-02-26 21:15:00
4:35 PM,55.4,55.4,100,29.71,2.5,ESE,15.0,26.5,N/A,,Overcast,120,2013-02-26 21:35:00
4:55 PM,55.4,55.4,100,29.67,2.0,East,15.0,26.5,N/A,,Overcast,90,2013-02-26 21:55:00
5:15 PM,55.4,55.4,100,29.69,2.5,ESE,10.4,19.6,N/A,,Overcast,120,2013-02-26 22:15:00
5:35 PM,55.4,55.4,100,29.68,3.0,SE,8.1,23.0,N/A,,Overcast,140,2013-02-26 22:35:00
5:55 PM,55.4,55.4,100,29.66,3.0,ESE,12.7,21.9,N/A,,Overcast,110,2013-02-26 22:55:00
6:15 PM,55.4,55.4,100,29.63,4.0,East,8.1,18.4,N/A,,Overcast,100,2013-02-26 23:15:00
6:35 PM,55.4,55.4,100,29.63,7.0,ESE,5.8,16.1,N/A,,Overcast,120,2013-02-26 23:35:00
6:55 PM,57.2,57.2,100,29.61,2.0,SE,8.1,17.3,N/A,,Overcast,140,2013-02-26 23:55:00
7:15 PM,57.2,57.2,100,29.60,10.0,SSE,10.4,-,N/A,,Overcast,160,2013-02-27 00:15:00
7:35 PM,59.0,59.0,100,29.61,5.0,South,6.9,-,N/A,,Overcast,170,2013-02-27 00:35:00
7:55 PM,60.8,60.8,100,29.60,10.0,Calm,Calm,-,N/A,,Overcast,0,2013-02-27 00:55:00
8:15 PM,60.8,60.8,100,29.59,10.0,SSE,8.1,-,N/A,,Overcast,150,2013-02-27 01:15:00
8:35 PM,60.8,60.8,100,29.59,10.0,South,5.8,-,N/A,,Overcast,170,2013-02-27 01:35:00
8:55 PM,60.8,60.8,100,29.59,10.0,SSE,9.2,-,N/A,,Overcast,160,2013-02-27 01:55:00
9:15 PM,62.6,62.6,100,29.58,10.0,SSE,6.9,-,N/A,,Overcast,160,2013-02-27 02:15:00
9:35 PM,62.6,62.6,100,29.57,10.0,SSE,5.8,-,N/A,,Overcast,160,2013-02-27 02:35:00
9:55 PM,62.6,62.6,100,29.57,7.0,South,5.8,-,N/A,,Overcast,170,2013-02-27 02:55:00
10:15 PM,62.6,62.6,100,29.56,7.0,South,5.8,-,N/A,,Overcast,180,2013-02-27 03:15:00
10:35 PM,64.4,64.4,100,29.57,5.0,SW,8.1,-,N/A,,Overcast,230,2013-02-27 03:35:00
10:55 PM,64.4,64.4,100,29.57,10.0,WSW,8.1,-,N/A,,Overcast,250,2013-02-27 03:55:00
11:15 PM,62.6,62.6,100,29.57,10.0,WSW,10.4,20.7,N/A,,Mostly Cloudy,250,2013-02-27 04:15:00
11:35 PM,62.6,62.6,100,29.58,10.0,West,6.9,-,N/A,,Overcast,270,2013-02-27 04:35:00
11:55 PM,62.6,62.6,100,29.57,10.0,West,5.8,-,N/A,,Overcast,260,2013-02-27 04:55:00